Southeast — WDG3942 — position and weather

sailwx.info

Track history (hours):
 
Tides and Currents Weather Stations Pressure Air Temp Water Temp Dewpoint Dewpoint Depression Visibility Wind Speed Wind Dir Waves Ship Positions

Southeast

Owner: F/V SOUTHEAST LLC, Ilwaco, WA. More information available from US FCC via Universal Licensing System and Coast Guard Vessel Documentation Center.

Last reported at 2018-Apr-20 12:30 UTC. Time now 2018-Apr-20 12:46 UTC.
Position N 46°14' W 124°07'.

Length 20 m.

MMSI: 367531260.

Date/timePositionNaut miles runAvg speedWind from/ knotsBaromVisibWave heightAir tempDewpointWater temp
2018-Apr-20 12:30N 46°14' W 124°07'4 8.3
2018-Apr-20 12:00N 46°16' W 124°02'2 3.7
2018-Apr-20 11:30N 46°18' W 124°02'3 6.2
2018-Apr-20 11:00N 46°15' W 124°00'3 7.0
2018-Apr-20 10:30N 46°13' W 123°57'3 6.1
2018-Apr-20 10:00N 46°10' W 123°55'0 0.0
2018-Apr-20 09:30N 46°10' W 123°55'0 0.0
2018-Apr-18 20:54N 46°10' W 123°55'0 0.0
2018-Apr-18 20:30N 46°10' W 123°55'0 0.0
2018-Apr-18 20:01N 46°10' W 123°55'0 0.0
2018-Apr-18 19:30N 46°10' W 123°55'0 0.0
2018-Apr-18 19:00N 46°10' W 123°55'0 0.0
2018-Apr-18 18:31N 46°10' W 123°55'0 0.0
2018-Apr-18 17:44N 46°10' W 123°55'0 0.0
2018-Apr-18 17:30N 46°10' W 123°55'0 0.0
2018-Apr-18 17:00N 46°10' W 123°55'0 0.0
2018-Apr-18 16:30N 46°10' W 123°55'0 0.0
2018-Apr-18 16:01N 46°10' W 123°55'0 0.0
2018-Apr-18 15:30N 46°10' W 123°55'0 0.0
2018-Apr-18 15:00N 46°10' W 123°55'0 0.0
2018-Apr-18 14:30N 46°10' W 123°55'0 0.0
2018-Apr-18 14:01N 46°10' W 123°55'0 0.0
2018-Apr-18 13:27N 46°10' W 123°55'0 0.0
2018-Apr-18 13:00N 46°10' W 123°55'0 0.0
2018-Apr-18 12:30N 46°10' W 123°55'0 0.0
2018-Apr-18 12:00N 46°10' W 123°55'0 0.0
2018-Apr-18 11:26N 46°10' W 123°55'0 0.0
2018-Apr-18 10:57N 46°10' W 123°55'0 0.0
2018-Apr-18 10:31N 46°10' W 123°55'0 0.0
2018-Apr-18 10:00N 46°10' W 123°55'0 0.0
2018-Apr-18 09:30N 46°10' W 123°55'0 0.0
2018-Apr-18 08:56N 46°10' W 123°55'0 0.0
2018-Apr-18 08:30N 46°10' W 123°55'0 0.0
2018-Apr-18 08:00N 46°10' W 123°55'0 0.0
2018-Apr-18 07:31N 46°10' W 123°55'0 0.0
2018-Apr-18 06:52N 46°10' W 123°55'0 0.0
2018-Apr-18 06:31N 46°10' W 123°55'0 0.0
2018-Apr-18 06:00N 46°10' W 123°55'0 0.0
2018-Apr-18 05:31N 46°10' W 123°55'0 0.0
2018-Apr-18 05:01N 46°10' W 123°55'0 0.0
2018-Apr-18 04:31N 46°10' W 123°55'0 0.0
2018-Apr-18 04:01N 46°10' W 123°55'0 0.0
2018-Apr-18 03:31N 46°10' W 123°55'0 0.0
2018-Apr-18 03:01N 46°10' W 123°55'0 0.0
2018-Apr-18 02:31N 46°10' W 123°55'0 0.0
2018-Apr-18 02:01N 46°10' W 123°55'0 0.0
2018-Apr-18 01:31N 46°10' W 123°55'0 0.0
2018-Apr-18 01:01N 46°10' W 123°55'0 0.0
2018-Apr-18 00:30N 46°10' W 123°55'0 0.0
2018-Apr-18 00:01N 46°10' W 123°55'0 0.0
2018-Apr-17 23:30N 46°10' W 123°55'0 0.0
2018-Apr-17 23:01N 46°10' W 123°55'0 0.0
2018-Apr-17 22:30N 46°10' W 123°55'0 0.0
2018-Apr-17 22:01N 46°10' W 123°55'0 0.0
2018-Apr-17 21:31N 46°10' W 123°55'0 0.0
2018-Apr-17 21:01N 46°10' W 123°55'0 0.0
2018-Apr-17 20:30N 46°10' W 123°55'0 0.0
2018-Apr-17 20:01N 46°10' W 123°55'0 0.0
2018-Apr-17 19:10N 46°10' W 123°55'0 0.0
2018-Apr-17 19:01N 46°10' W 123°55'2 4.2
2018-Apr-17 18:28N 46°12' W 123°56'4 8.6
2018-Apr-17 18:00N 46°15' W 124°00'3 6.2
2018-Apr-17 17:29N 46°18' W 124°02'0 0.7
2018-Apr-17 17:01N 46°18' W 124°03'0 0.0
2018-Apr-17 16:15N 46°18' W 124°03'0 0.0
2018-Apr-17 16:01N 46°18' W 124°03'0 0.0
2018-Apr-17 15:30N 46°18' W 124°03'0 0.0
2018-Apr-17 15:00N 46°18' W 124°03'0 0.0
2018-Apr-17 14:30N 46°18' W 124°03'0 0.0
2018-Apr-17 14:01N 46°18' W 124°03'0 0.0
2018-Apr-17 13:30N 46°18' W 124°03'0 0.0
2018-Apr-17 12:53N 46°18' W 124°03'0 0.0
2018-Apr-17 12:30N 46°18' W 124°03'0 0.0
2018-Apr-17 12:00N 46°18' W 124°03'0 0.0
2018-Apr-17 11:31N 46°18' W 124°03'0 0.4
2018-Apr-17 10:51N 46°18' W 124°02'2 5.2
2018-Apr-17 10:31N 46°16' W 124°02'3 5.8
2018-Apr-17 10:00N 46°15' W 124°05'2 4.6
2018-Apr-17 09:30N 46°13' W 124°04'3 4.1
2018-Apr-17 08:51N 46°10' W 124°04'3 7.4
2018-Apr-17 08:30N 46°08' W 124°07'4 6.8
2018-Apr-17 07:58N 46°05' W 124°09'3 6.9
2018-Apr-17 07:31N 46°02' W 124°11'5 6.8
2018-Apr-17 06:50N 45°58' W 124°14'2 6.9
2018-Apr-17 06:30N 45°56' W 124°15'8 6.9
2018-Apr-17 05:21N 45°49' W 124°19'1 3.8
2018-Apr-17 05:01N 45°47' W 124°19'2 3.1
2018-Apr-17 04:30N 45°46' W 124°19'1 1.8
2018-Apr-17 04:00N 45°45' W 124°19'4 7.2
2018-Apr-17 03:31N 45°48' W 124°22'2 3.0
2018-Apr-17 03:00N 45°46' W 124°22'1 3.0
2018-Apr-17 02:30N 45°45' W 124°22'1 2.5
2018-Apr-17 02:00N 45°46' W 124°23'2 3.0
2018-Apr-17 01:30N 45°44' W 124°23'1 2.3
2018-Apr-17 01:01N 45°43' W 124°23'3 5.1
2018-Apr-17 00:24N 45°46' W 124°21'1 2.4
2018-Apr-17 00:00N 45°45' W 124°20'1 2.3
2018-Apr-16 23:24N 45°43' W 124°20'1 2.1
2018-Apr-16 23:01N 45°43' W 124°19'1 2.4
2018-Apr-16 22:30N 45°44' W 124°19'1 2.5
2018-Apr-16 22:00N 45°43' W 124°19'2 3.3
2018-Apr-16 21:31N 45°44' W 124°18'1 2.8
2018-Apr-16 21:01N 45°43' W 124°18'2 3.0
2018-Apr-16 20:21N 45°41' W 124°17'1 2.8
2018-Apr-16 20:00N 45°40' W 124°17'2 3.0
2018-Apr-16 19:27N 45°38' W 124°17'0 0.6
2018-Apr-16 19:00N 45°38' W 124°17'4 7.3
2018-Apr-16 18:30N 45°41' W 124°20'1 1.7
2018-Apr-16 18:00N 45°42' W 124°20'2 3.6
2018-Apr-16 17:30N 45°40' W 124°19'1 2.7
2018-Apr-16 17:00N 45°39' W 124°18'2 2.4
2018-Apr-16 16:21N 45°37' W 124°18'3 7.1
2018-Apr-16 15:54N 45°40' W 124°20'1 1.4
2018-Apr-16 15:30N 45°40' W 124°20'1 2.7
2018-Apr-16 15:01N 45°39' W 124°20'1 2.6
2018-Apr-16 14:30N 45°37' W 124°20'1 2.9
2018-Apr-16 14:00N 45°36' W 124°19'1 2.7
2018-Apr-16 13:31N 45°34' W 124°19'2 3.3
2018-Apr-16 13:01N 45°33' W 124°17'3 6.7
2018-Apr-16 12:30N 45°32' W 124°13'2 4.5
2018-Apr-16 12:00N 45°30' W 124°10'2 3.1
2018-Apr-16 11:30N 45°29' W 124°10'2 3.2
2018-Apr-16 11:01N 45°27' W 124°10'3 6.5
2018-Apr-16 10:31N 45°30' W 124°11'1 1.0
2018-Apr-16 10:00N 45°30' W 124°12'1 2.9
2018-Apr-16 09:31N 45°29' W 124°12'1 2.0
2018-Apr-16 09:00N 45°28' W 124°12'4 7.5
2018-Apr-16 08:31N 45°31' W 124°15'2 3.0
2018-Apr-16 08:01N 45°29' W 124°15'1 3.0
2018-Apr-16 07:30N 45°28' W 124°15'0 0.5
2018-Apr-16 07:01N 45°28' W 124°15'4 7.7
2018-Apr-16 06:31N 45°32' W 124°15'4 7.9
2018-Apr-16 06:01N 45°36' W 124°16'4 7.9
2018-Apr-16 05:30N 45°40' W 124°18'4 7.8
2018-Apr-16 05:00N 45°44' W 124°19'3 6.2
2018-Apr-16 04:31N 45°47' W 124°20'4 7.5
2018-Apr-16 04:00N 45°50' W 124°21'4 7.6
2018-Apr-16 03:30N 45°54' W 124°22'4 7.5
2018-Apr-16 03:00N 45°58' W 124°23'4 7.5
2018-Apr-16 02:30N 46°01' W 124°24'4 7.7
2018-Apr-16 02:01N 46°05' W 124°26'4 7.6
2018-Apr-16 01:31N 46°09' W 124°27'4 7.3
2018-Apr-16 01:00N 46°12' W 124°28'4 8.0
2018-Apr-16 00:30N 46°16' W 124°30'4 7.8
2018-Apr-16 00:01N 46°20' W 124°30'1 2.4
2018-Apr-15 23:30N 46°19' W 124°30'1 1.9
2018-Apr-15 23:00N 46°18' W 124°30'1 2.2
2018-Apr-15 22:30N 46°18' W 124°28'2 3.1
2018-Apr-15 22:00N 46°19' W 124°29'2 4.4
2018-Apr-15 21:30N 46°18' W 124°26'1 2.8
2018-Apr-15 21:01N 46°20' W 124°27'2 3.2
2018-Apr-15 20:31N 46°21' W 124°29'2 3.1
2018-Apr-15 20:00N 46°22' W 124°30'1 2.4
2018-Apr-15 19:30N 46°21' W 124°29'3 5.3
2018-Apr-15 19:01N 46°19' W 124°26'4 7.4
2018-Apr-15 18:30N 46°19' W 124°21'4 8.7
2018-Apr-15 18:01N 46°17' W 124°15'4 8.6
2018-Apr-15 17:31N 46°15' W 124°09'4 7.5
2018-Apr-15 17:00N 46°16' W 124°04'2 4.0
2018-Apr-15 16:30N 46°17' W 124°03'0 0.6
2018-Apr-15 16:00N 46°17' W 124°03'4 8.1
2018-Apr-15 15:30N 46°14' W 123°59'4 8.9
2018-Apr-15 15:01N 46°11' W 123°54'1 2.2
2018-Apr-15 14:30N 46°10' W 123°55'0 0.0
2018-Apr-15 14:00N 46°10' W 123°55'0 0.0
2018-Apr-15 13:30N 46°10' W 123°55'0 0.0
2018-Apr-15 13:01N 46°10' W 123°55'0 0.0
2018-Apr-15 12:31N 46°10' W 123°55'0 0.0
2018-Apr-15 12:01N 46°10' W 123°55'0 0.0
2018-Apr-15 11:31N 46°10' W 123°55'0 0.0
2018-Apr-15 11:00N 46°10' W 123°55'0 0.0
2018-Apr-15 10:31N 46°10' W 123°55'0 0.0
2018-Apr-15 09:12N 46°10' W 123°55'0 0.0
2018-Apr-15 09:01N 46°10' W 123°55'0 0.0
2018-Apr-15 08:30N 46°10' W 123°55'0 0.0
2018-Apr-15 08:00N 46°10' W 123°55'0 0.0
2018-Apr-15 07:31N 46°10' W 123°55'0 0.0
2018-Apr-15 07:01N 46°10' W 123°55'0 0.0
2018-Apr-15 06:31N 46°10' W 123°55'0 0.0
2018-Apr-15 06:00N 46°10' W 123°55'0 0.0
2018-Apr-15 05:31N 46°10' W 123°55'0 0.0
2018-Apr-15 05:01N 46°10' W 123°55'0 0.0
2018-Apr-15 04:30N 46°10' W 123°55'0 0.0
2018-Apr-15 04:01N 46°10' W 123°55'0 0.0
2018-Apr-15 03:30N 46°10' W 123°55'0 0.0
2018-Apr-15 03:01N 46°10' W 123°55'0 0.0
2018-Apr-15 02:30N 46°10' W 123°55'0 0.0
2018-Apr-15 02:01N 46°10' W 123°55'0 0.0
2018-Apr-15 01:30N 46°10' W 123°55'0 0.0
2018-Apr-15 01:00N 46°10' W 123°55'0 0.0
2018-Apr-15 00:30N 46°10' W 123°55'0 0.0
2018-Apr-15 00:01N 46°10' W 123°55'0 0.0
2018-Apr-14 23:31N 46°10' W 123°55'0 0.0
2018-Apr-14 23:01N 46°10' W 123°55'0 0.0
2018-Apr-14 22:30N 46°10' W 123°55'0 0.0
2018-Apr-14 22:00N 46°10' W 123°55'0 0.0
2018-Apr-14 21:30N 46°10' W 123°55'0 0.0
2018-Apr-14 21:01N 46°10' W 123°55'0 0.0
2018-Apr-14 20:30N 46°10' W 123°55'0 0.0
2018-Apr-14 20:00N 46°10' W 123°55'0 0.0
2018-Apr-14 19:30N 46°10' W 123°55'0 0.0
2018-Apr-14 19:01N 46°10' W 123°55'0 0.0
2018-Apr-14 18:30N 46°10' W 123°55'0 0.0
2018-Apr-14 18:01N 46°10' W 123°55'0 0.0
2018-Apr-14 17:30N 46°10' W 123°55'0 0.0
2018-Apr-14 17:00N 46°10' W 123°55'0 0.0
2018-Apr-14 16:31N 46°10' W 123°55'0 0.0
2018-Apr-14 16:00N 46°10' W 123°55'0 0.0
2018-Apr-14 15:30N 46°10' W 123°55'0 0.0
2018-Apr-14 15:01N 46°10' W 123°55'0 0.0
2018-Apr-14 14:31N 46°10' W 123°55'0 0.0
2018-Apr-14 14:00N 46°10' W 123°55'0 0.0
2018-Apr-14 13:30N 46°10' W 123°55'0 0.0
2018-Apr-14 12:59N 46°10' W 123°55'0 0.0
2018-Apr-14 12:31N 46°10' W 123°55'0 0.0
2018-Apr-14 12:00N 46°10' W 123°55'0 0.0
2018-Apr-14 11:30N 46°10' W 123°55'0 0.0
2018-Apr-14 11:01N 46°10' W 123°55'0 0.0
2018-Apr-14 10:05N 46°10' W 123°55'0 0.0
2018-Apr-14 10:00N 46°10' W 123°55'0 0.0
2018-Apr-14 09:31N 46°10' W 123°55'0 0.0
2018-Apr-14 08:55N 46°10' W 123°55'0 0.0
2018-Apr-14 08:30N 46°10' W 123°55'0 0.0
2018-Apr-14 08:00N 46°10' W 123°55'0 0.0
2018-Apr-14 07:30N 46°10' W 123°55'0 0.0
2018-Apr-14 07:01N 46°10' W 123°55'0 0.0
2018-Apr-14 06:30N 46°10' W 123°55'0 0.0
2018-Apr-14 06:00N 46°10' W 123°55'0 0.0
2018-Apr-14 05:30N 46°10' W 123°55'0 0.0
2018-Apr-14 04:56N 46°10' W 123°55'0 0.0
2018-Apr-14 04:24N 46°10' W 123°55'0 0.0
2018-Apr-14 04:01N 46°10' W 123°55'0 0.0
2018-Apr-14 03:31N 46°10' W 123°55'0 0.0
2018-Apr-14 02:56N 46°10' W 123°55'0 0.0
2018-Apr-14 02:30N 46°10' W 123°55'0 0.0
2018-Apr-14 02:01N 46°10' W 123°55'0 0.0
2018-Apr-14 01:31N 46°10' W 123°55'0 0.0
2018-Apr-14 00:56N 46°10' W 123°55'0 0.0
2018-Apr-14 00:31N 46°10' W 123°55'0 0.0
2018-Apr-14 00:01N 46°10' W 123°55'0 0.0
2018-Apr-13 23:28N 46°10' W 123°55'0 0.0
2018-Apr-13 22:57N 46°10' W 123°55'0 0.0
2018-Apr-13 22:31N 46°10' W 123°55'0 0.0
2018-Apr-13 22:01N 46°10' W 123°55'0 0.0
2018-Apr-13 21:30N 46°10' W 123°55'0 0.0
2018-Apr-13 21:01N 46°10' W 123°55'0 0.0
2018-Apr-13 20:31N 46°10' W 123°55'0 0.0
2018-Apr-13 20:01N 46°10' W 123°55'0 0.0
2018-Apr-13 19:30N 46°10' W 123°55'0 0.0
2018-Apr-13 19:00N 46°10' W 123°55'0 0.0
2018-Apr-13 18:16N 46°10' W 123°55'0 0.0
2018-Apr-13 18:01N 46°10' W 123°55'0 0.0
2018-Apr-13 17:30N 46°10' W 123°55'0 0.0
2018-Apr-13 17:01N 46°10' W 123°55'0 0.0
2018-Apr-13 16:31N 46°10' W 123°55'0 0.0
2018-Apr-13 16:01N 46°10' W 123°55'0 0.0
2018-Apr-13 15:30N 46°10' W 123°55'0 0.0
2018-Apr-13 15:00N 46°10' W 123°55'0 0.0
2018-Apr-13 14:31N 46°10' W 123°55'0 0.0
2018-Apr-13 14:00N 46°10' W 123°55'0 0.0
2018-Apr-13 13:31N 46°10' W 123°55'0 0.0
2018-Apr-13 13:01N 46°10' W 123°55'0 0.0
2018-Apr-13 12:30N 46°10' W 123°55'0 0.0
2018-Apr-13 12:01N 46°10' W 123°55'0 0.0
2018-Apr-13 11:31N 46°10' W 123°55'0 0.0
2018-Apr-13 11:00N 46°10' W 123°55'0 0.0
2018-Apr-13 10:30N 46°10' W 123°55'0 0.0
2018-Apr-13 10:00N 46°10' W 123°55'0 0.0
2018-Apr-13 09:29N 46°10' W 123°55'0 0.0
2018-Apr-13 09:00N 46°10' W 123°55'0 0.0
2018-Apr-13 08:31N 46°10' W 123°55'0 0.0
2018-Apr-13 08:00N 46°10' W 123°55'0 0.0
2018-Apr-13 07:30N 46°10' W 123°55'0 0.0
2018-Apr-13 07:01N 46°10' W 123°55'0 0.0
2018-Apr-13 06:31N 46°10' W 123°55'0 0.0
2018-Apr-13 06:01N 46°10' W 123°55'0 0.0
2018-Apr-13 05:30N 46°10' W 123°55'0 0.0
2018-Apr-13 05:01N 46°10' W 123°55'0 0.0
2018-Apr-13 04:30N 46°10' W 123°55'0 0.0
2018-Apr-13 03:49N 46°10' W 123°55'0 0.0
2018-Apr-13 03:21N 46°10' W 123°55'0 0.0
2018-Apr-13 03:01N 46°10' W 123°55'0 0.0
2018-Apr-13 02:30N 46°10' W 123°55'0 0.0
2018-Apr-13 01:58N 46°10' W 123°55'0 0.0
2018-Apr-13 01:27N 46°10' W 123°55'0 0.0
2018-Apr-13 01:00N 46°10' W 123°55'0 0.0
2018-Apr-13 00:30N 46°10' W 123°55'0 0.0
2018-Apr-12 23:47N 46°10' W 123°55'0 0.0
2018-Apr-12 23:31N 46°10' W 123°55'0 0.0
2018-Apr-12 23:00N 46°10' W 123°55'0 0.0
2018-Apr-12 22:31N 46°10' W 123°55'0 0.0
2018-Apr-12 22:00N 46°10' W 123°55'0 0.0
2018-Apr-12 21:31N 46°10' W 123°55'0 0.0
2018-Apr-12 21:01N 46°10' W 123°55'0 0.0
2018-Apr-12 20:31N 46°10' W 123°55'0 0.0
2018-Apr-12 20:01N 46°10' W 123°55'0 0.0
2018-Apr-12 19:30N 46°10' W 123°55'0 0.0
2018-Apr-12 19:00N 46°10' W 123°55'0 0.0
2018-Apr-12 18:31N 46°10' W 123°55'0 0.0
2018-Apr-12 18:00N 46°10' W 123°55'0 0.0
2018-Apr-12 17:30N 46°10' W 123°55'0 0.0
2018-Apr-12 17:00N 46°10' W 123°55'0 0.0
2018-Apr-12 16:30N 46°10' W 123°55'0 0.0
2018-Apr-12 16:00N 46°10' W 123°55'0 0.0
2018-Apr-12 15:30N 46°10' W 123°55'0 0.0
2018-Apr-12 15:01N 46°10' W 123°55'0 0.0
2018-Apr-12 14:30N 46°10' W 123°55'0 0.0
2018-Apr-12 14:01N 46°10' W 123°55'0 0.0
2018-Apr-12 13:30N 46°10' W 123°55'0 0.0
2018-Apr-12 13:00N 46°10' W 123°55'0 0.0
2018-Apr-12 12:31N 46°10' W 123°55'0 0.0
2018-Apr-12 12:01N 46°10' W 123°55'0 0.0
2018-Apr-12 11:31N 46°10' W 123°55'0 0.0
2018-Apr-12 11:00N 46°10' W 123°55'0 0.0
2018-Apr-12 10:30N 46°10' W 123°55'0 0.0
2018-Apr-12 10:00N 46°10' W 123°55'0 0.0
2018-Apr-12 09:31N 46°10' W 123°55'0 0.0
2018-Apr-12 09:01N 46°10' W 123°55'0 0.0
2018-Apr-12 08:30N 46°10' W 123°55'0 0.0
2018-Apr-12 08:00N 46°10' W 123°55'0 0.0
2018-Apr-12 07:31N 46°10' W 123°55'0 0.0
2018-Apr-12 07:00N 46°10' W 123°55'0 0.0
2018-Apr-12 06:30N 46°10' W 123°55'0 0.0
2018-Apr-12 06:00N 46°10' W 123°55'0 0.0
2018-Apr-12 05:31N 46°10' W 123°55'0 0.0
2018-Apr-12 05:00N 46°10' W 123°55'0 0.0
2018-Apr-12 04:31N 46°10' W 123°55'0 0.0
2018-Apr-12 04:00N 46°10' W 123°55'0 0.0
2018-Apr-12 03:31N 46°10' W 123°55'0 0.0
2018-Apr-12 03:00N 46°10' W 123°55'0 0.0
2018-Apr-12 02:31N 46°10' W 123°55'0 0.0
2018-Apr-12 02:00N 46°10' W 123°55'0 0.0
2018-Apr-12 01:30N 46°10' W 123°55'0 0.0
2018-Apr-12 00:52N 46°10' W 123°55'0 0.0
2018-Apr-12 00:31N 46°10' W 123°55'0 0.0
2018-Apr-12 00:01N 46°10' W 123°55'0 0.0
2018-Apr-11 23:30N 46°10' W 123°55'0 0.0
2018-Apr-11 23:00N 46°10' W 123°55'0 0.0
2018-Apr-11 22:30N 46°10' W 123°55'0 0.0
2018-Apr-11 22:01N 46°10' W 123°55'0 0.0
2018-Apr-11 21:30N 46°10' W 123°55'0 0.0
2018-Apr-11 21:00N 46°10' W 123°55'0 0.0
2018-Apr-11 20:30N 46°10' W 123°55'0 0.0
2018-Apr-11 20:01N 46°10' W 123°55'0 0.0
2018-Apr-11 19:31N 46°10' W 123°55'0 0.0
2018-Apr-11 19:00N 46°10' W 123°55'0 0.0
2018-Apr-11 18:30N 46°10' W 123°55'0 0.0
2018-Apr-11 18:00N 46°10' W 123°55'0 0.0
2018-Apr-11 17:30N 46°10' W 123°55'0 0.0
2018-Apr-11 17:01N 46°10' W 123°55'0 0.0
2018-Apr-11 16:31N 46°10' W 123°55'0 0.0
2018-Apr-11 16:00N 46°10' W 123°55'0 0.0
2018-Apr-11 15:30N 46°10' W 123°55'0 0.0
2018-Apr-11 15:01N 46°10' W 123°55'0 0.0
2018-Apr-11 14:31N 46°10' W 123°55'0 0.0
2018-Apr-11 14:01N 46°10' W 123°55'0 0.0
2018-Apr-11 13:31N 46°10' W 123°55'0 0.0
2018-Apr-11 13:01N 46°10' W 123°55'0 0.0
2018-Apr-11 12:31N 46°10' W 123°55'0 0.0
2018-Apr-11 12:01N 46°10' W 123°55'0 0.0
2018-Apr-11 11:31N 46°10' W 123°55'0 0.0
2018-Apr-11 11:00N 46°10' W 123°55'0 0.0
2018-Apr-11 10:30N 46°10' W 123°55'0 0.0
2018-Apr-11 10:01N 46°10' W 123°55'0 0.0
2018-Apr-11 09:30N 46°10' W 123°55'0 0.0
2018-Apr-11 09:01N 46°10' W 123°55'0 0.0
2018-Apr-11 08:31N 46°10' W 123°55'0 0.0
2018-Apr-11 08:01N 46°10' W 123°55'0 0.0
2018-Apr-11 07:30N 46°10' W 123°55'0 0.0
2018-Apr-11 07:01N 46°10' W 123°55'0 0.0
2018-Apr-11 06:31N 46°10' W 123°55'0 0.0
2018-Apr-11 06:01N 46°10' W 123°55'0 0.0
2018-Apr-11 05:31N 46°10' W 123°55'0 0.0
2018-Apr-11 05:01N 46°10' W 123°55'0 0.0
2018-Apr-11 04:31N 46°10' W 123°55'0 0.0
2018-Apr-11 04:00N 46°10' W 123°55'0 0.0
2018-Apr-11 03:30N 46°10' W 123°55'0 0.0
2018-Apr-11 03:01N 46°10' W 123°55'0 0.0
2018-Apr-11 02:31N 46°10' W 123°55'0 0.0
2018-Apr-11 02:01N 46°10' W 123°55'0 0.0
2018-Apr-11 01:26N 46°10' W 123°55'0 0.0
2018-Apr-11 00:47N 46°10' W 123°55'0 0.0
2018-Apr-11 00:31N 46°10' W 123°55'0 0.0
2018-Apr-11 00:01N 46°10' W 123°55'0 0.0
2018-Apr-10 23:31N 46°10' W 123°55'0 0.0
2018-Apr-10 23:01N 46°10' W 123°55'0 0.0
2018-Apr-10 22:31N 46°10' W 123°55'0 0.0
2018-Apr-10 22:01N 46°10' W 123°55'0 0.0
2018-Apr-10 21:30N 46°10' W 123°55'0 0.0
2018-Apr-10 21:01N 46°10' W 123°55'0 0.0
2018-Apr-10 20:30N 46°10' W 123°55'0 0.0
2018-Apr-10 20:00N 46°10' W 123°55'0 0.0
2018-Apr-10 19:31N 46°10' W 123°55'0 0.0
2018-Apr-10 18:56N 46°10' W 123°55'0 0.0
2018-Apr-10 18:31N 46°10' W 123°55'0 0.0
2018-Apr-10 18:01N 46°10' W 123°55'0 0.0
2018-Apr-10 17:30N 46°10' W 123°55'0 0.0
2018-Apr-10 17:01N 46°10' W 123°55'0 0.0
2018-Apr-10 16:30N 46°10' W 123°55'0 0.0
2018-Apr-10 16:00N 46°10' W 123°55'0 0.0
2018-Apr-10 15:31N 46°10' W 123°55'0 0.0
2018-Apr-10 15:01N 46°10' W 123°55'0 0.0
2018-Apr-10 14:31N 46°10' W 123°55'0 0.0
2018-Apr-10 14:01N 46°10' W 123°55'0 0.0
2018-Apr-10 13:30N 46°10' W 123°55'0 0.0
2018-Apr-10 13:00N 46°10' W 123°55'0 0.0
2018-Apr-10 12:30N 46°10' W 123°55'  
Track history (hours):
 
Tides and Currents Weather Stations Pressure Air Temp Water Temp Dewpoint Dewpoint Depression Visibility Wind Speed Wind Dir Waves Ship Positions

Southeast

Owner: F/V SOUTHEAST LLC, Ilwaco, WA. More information available from US FCC via Universal Licensing System and Coast Guard Vessel Documentation Center.

Last reported at 2018-Apr-20 12:30 UTC. Time now 2018-Apr-20 12:46 UTC.
Position N 46°14' W 124°07'.

Length 20 m.

MMSI: 367531260.

Date/timePositionNaut miles runAvg speedWind from/ knotsBaromVisibWave heightAir tempDewpointWater temp
2018-Apr-20 12:30N 46°14' W 124°07'4 8.3
2018-Apr-20 12:00N 46°16' W 124°02'2 3.7
2018-Apr-20 11:30N 46°18' W 124°02'3 6.2
2018-Apr-20 11:00N 46°15' W 124°00'3 7.0
2018-Apr-20 10:30N 46°13' W 123°57'3 6.1
2018-Apr-20 10:00N 46°10' W 123°55'0 0.0
2018-Apr-20 09:30N 46°10' W 123°55'0 0.0
2018-Apr-18 20:54N 46°10' W 123°55'0 0.0
2018-Apr-18 20:30N 46°10' W 123°55'0 0.0
2018-Apr-18 20:01N 46°10' W 123°55'0 0.0
2018-Apr-18 19:30N 46°10' W 123°55'0 0.0
2018-Apr-18 19:00N 46°10' W 123°55'0 0.0
2018-Apr-18 18:31N 46°10' W 123°55'0 0.0
2018-Apr-18 17:44N 46°10' W 123°55'0 0.0
2018-Apr-18 17:30N 46°10' W 123°55'0 0.0
2018-Apr-18 17:00N 46°10' W 123°55'0 0.0
2018-Apr-18 16:30N 46°10' W 123°55'0 0.0
2018-Apr-18 16:01N 46°10' W 123°55'0 0.0
2018-Apr-18 15:30N 46°10' W 123°55'0 0.0
2018-Apr-18 15:00N 46°10' W 123°55'0 0.0
2018-Apr-18 14:30N 46°10' W 123°55'0 0.0
2018-Apr-18 14:01N 46°10' W 123°55'0 0.0
2018-Apr-18 13:27N 46°10' W 123°55'0 0.0
2018-Apr-18 13:00N 46°10' W 123°55'0 0.0
2018-Apr-18 12:30N 46°10' W 123°55'0 0.0
2018-Apr-18 12:00N 46°10' W 123°55'0 0.0
2018-Apr-18 11:26N 46°10' W 123°55'0 0.0
2018-Apr-18 10:57N 46°10' W 123°55'0 0.0
2018-Apr-18 10:31N 46°10' W 123°55'0 0.0
2018-Apr-18 10:00N 46°10' W 123°55'0 0.0
2018-Apr-18 09:30N 46°10' W 123°55'0 0.0
2018-Apr-18 08:56N 46°10' W 123°55'0 0.0
2018-Apr-18 08:30N 46°10' W 123°55'0 0.0
2018-Apr-18 08:00N 46°10' W 123°55'0 0.0
2018-Apr-18 07:31N 46°10' W 123°55'0 0.0
2018-Apr-18 06:52N 46°10' W 123°55'0 0.0
2018-Apr-18 06:31N 46°10' W 123°55'0 0.0
2018-Apr-18 06:00N 46°10' W 123°55'0 0.0
2018-Apr-18 05:31N 46°10' W 123°55'0 0.0
2018-Apr-18 05:01N 46°10' W 123°55'0 0.0
2018-Apr-18 04:31N 46°10' W 123°55'0 0.0
2018-Apr-18 04:01N 46°10' W 123°55'0 0.0
2018-Apr-18 03:31N 46°10' W 123°55'0 0.0
2018-Apr-18 03:01N 46°10' W 123°55'0 0.0
2018-Apr-18 02:31N 46°10' W 123°55'0 0.0
2018-Apr-18 02:01N 46°10' W 123°55'0 0.0
2018-Apr-18 01:31N 46°10' W 123°55'0 0.0
2018-Apr-18 01:01N 46°10' W 123°55'0 0.0
2018-Apr-18 00:30N 46°10' W 123°55'0 0.0
2018-Apr-18 00:01N 46°10' W 123°55'0 0.0
2018-Apr-17 23:30N 46°10' W 123°55'0 0.0
2018-Apr-17 23:01N 46°10' W 123°55'0 0.0
2018-Apr-17 22:30N 46°10' W 123°55'0 0.0
2018-Apr-17 22:01N 46°10' W 123°55'0 0.0
2018-Apr-17 21:31N 46°10' W 123°55'0 0.0
2018-Apr-17 21:01N 46°10' W 123°55'0 0.0
2018-Apr-17 20:30N 46°10' W 123°55'0 0.0
2018-Apr-17 20:01N 46°10' W 123°55'0 0.0
2018-Apr-17 19:10N 46°10' W 123°55'0 0.0
2018-Apr-17 19:01N 46°10' W 123°55'2 4.2
2018-Apr-17 18:28N 46°12' W 123°56'4 8.6
2018-Apr-17 18:00N 46°15' W 124°00'3 6.2
2018-Apr-17 17:29N 46°18' W 124°02'0 0.7
2018-Apr-17 17:01N 46°18' W 124°03'0 0.0
2018-Apr-17 16:15N 46°18' W 124°03'0 0.0
2018-Apr-17 16:01N 46°18' W 124°03'0 0.0
2018-Apr-17 15:30N 46°18' W 124°03'0 0.0
2018-Apr-17 15:00N 46°18' W 124°03'0 0.0
2018-Apr-17 14:30N 46°18' W 124°03'0 0.0
2018-Apr-17 14:01N 46°18' W 124°03'0 0.0
2018-Apr-17 13:30N 46°18' W 124°03'0 0.0
2018-Apr-17 12:53N 46°18' W 124°03'0 0.0
2018-Apr-17 12:30N 46°18' W 124°03'0 0.0
2018-Apr-17 12:00N 46°18' W 124°03'0 0.0
2018-Apr-17 11:31N 46°18' W 124°03'0 0.4
2018-Apr-17 10:51N 46°18' W 124°02'2 5.2
2018-Apr-17 10:31N 46°16' W 124°02'3 5.8
2018-Apr-17 10:00N 46°15' W 124°05'2 4.6
2018-Apr-17 09:30N 46°13' W 124°04'3 4.1
2018-Apr-17 08:51N 46°10' W 124°04'3 7.4
2018-Apr-17 08:30N 46°08' W 124°07'4 6.8
2018-Apr-17 07:58N 46°05' W 124°09'3 6.9
2018-Apr-17 07:31N 46°02' W 124°11'5 6.8
2018-Apr-17 06:50N 45°58' W 124°14'2 6.9
2018-Apr-17 06:30N 45°56' W 124°15'8 6.9
2018-Apr-17 05:21N 45°49' W 124°19'1 3.8
2018-Apr-17 05:01N 45°47' W 124°19'2 3.1
2018-Apr-17 04:30N 45°46' W 124°19'1 1.8
2018-Apr-17 04:00N 45°45' W 124°19'4 7.2
2018-Apr-17 03:31N 45°48' W 124°22'2 3.0
2018-Apr-17 03:00N 45°46' W 124°22'1 3.0
2018-Apr-17 02:30N 45°45' W 124°22'1 2.5
2018-Apr-17 02:00N 45°46' W 124°23'2 3.0
2018-Apr-17 01:30N 45°44' W 124°23'1 2.3
2018-Apr-17 01:01N 45°43' W 124°23'3 5.1
2018-Apr-17 00:24N 45°46' W 124°21'1 2.4
2018-Apr-17 00:00N 45°45' W 124°20'1 2.3
2018-Apr-16 23:24N 45°43' W 124°20'1 2.1
2018-Apr-16 23:01N 45°43' W 124°19'1 2.4
2018-Apr-16 22:30N 45°44' W 124°19'1 2.5
2018-Apr-16 22:00N 45°43' W 124°19'2 3.3
2018-Apr-16 21:31N 45°44' W 124°18'1 2.8
2018-Apr-16 21:01N 45°43' W 124°18'2 3.0
2018-Apr-16 20:21N 45°41' W 124°17'1 2.8
2018-Apr-16 20:00N 45°40' W 124°17'2 3.0
2018-Apr-16 19:27N 45°38' W 124°17'0 0.6
2018-Apr-16 19:00N 45°38' W 124°17'4 7.3
2018-Apr-16 18:30N 45°41' W 124°20'1 1.7
2018-Apr-16 18:00N 45°42' W 124°20'2 3.6
2018-Apr-16 17:30N 45°40' W 124°19'1 2.7
2018-Apr-16 17:00N 45°39' W 124°18'2 2.4
2018-Apr-16 16:21N 45°37' W 124°18'3 7.1
2018-Apr-16 15:54N 45°40' W 124°20'1 1.4
2018-Apr-16 15:30N 45°40' W 124°20'1 2.7
2018-Apr-16 15:01N 45°39' W 124°20'1 2.6
2018-Apr-16 14:30N 45°37' W 124°20'1 2.9
2018-Apr-16 14:00N 45°36' W 124°19'1 2.7
2018-Apr-16 13:31N 45°34' W 124°19'2 3.3
2018-Apr-16 13:01N 45°33' W 124°17'3 6.7
2018-Apr-16 12:30N 45°32' W 124°13'2 4.5
2018-Apr-16 12:00N 45°30' W 124°10'2 3.1
2018-Apr-16 11:30N 45°29' W 124°10'2 3.2
2018-Apr-16 11:01N 45°27' W 124°10'3 6.5
2018-Apr-16 10:31N 45°30' W 124°11'1 1.0
2018-Apr-16 10:00N 45°30' W 124°12'1 2.9
2018-Apr-16 09:31N 45°29' W 124°12'1 2.0
2018-Apr-16 09:00N 45°28' W 124°12'4 7.5
2018-Apr-16 08:31N 45°31' W 124°15'2 3.0
2018-Apr-16 08:01N 45°29' W 124°15'1 3.0
2018-Apr-16 07:30N 45°28' W 124°15'0 0.5
2018-Apr-16 07:01N 45°28' W 124°15'4 7.7
2018-Apr-16 06:31N 45°32' W 124°15'4 7.9
2018-Apr-16 06:01N 45°36' W 124°16'4 7.9
2018-Apr-16 05:30N 45°40' W 124°18'4 7.8
2018-Apr-16 05:00N 45°44' W 124°19'3 6.2
2018-Apr-16 04:31N 45°47' W 124°20'4 7.5
2018-Apr-16 04:00N 45°50' W 124°21'4 7.6
2018-Apr-16 03:30N 45°54' W 124°22'4 7.5
2018-Apr-16 03:00N 45°58' W 124°23'4 7.5
2018-Apr-16 02:30N 46°01' W 124°24'4 7.7
2018-Apr-16 02:01N 46°05' W 124°26'4 7.6
2018-Apr-16 01:31N 46°09' W 124°27'4 7.3
2018-Apr-16 01:00N 46°12' W 124°28'4 8.0
2018-Apr-16 00:30N 46°16' W 124°30'4 7.8
2018-Apr-16 00:01N 46°20' W 124°30'1 2.4
2018-Apr-15 23:30N 46°19' W 124°30'1 1.9
2018-Apr-15 23:00N 46°18' W 124°30'1 2.2
2018-Apr-15 22:30N 46°18' W 124°28'2 3.1
2018-Apr-15 22:00N 46°19' W 124°29'2 4.4
2018-Apr-15 21:30N 46°18' W 124°26'1 2.8
2018-Apr-15 21:01N 46°20' W 124°27'2 3.2
2018-Apr-15 20:31N 46°21' W 124°29'2 3.1
2018-Apr-15 20:00N 46°22' W 124°30'1 2.4
2018-Apr-15 19:30N 46°21' W 124°29'3 5.3
2018-Apr-15 19:01N 46°19' W 124°26'4 7.4
2018-Apr-15 18:30N 46°19' W 124°21'4 8.7
2018-Apr-15 18:01N 46°17' W 124°15'4 8.6
2018-Apr-15 17:31N 46°15' W 124°09'4 7.5
2018-Apr-15 17:00N 46°16' W 124°04'2 4.0
2018-Apr-15 16:30N 46°17' W 124°03'0 0.6
2018-Apr-15 16:00N 46°17' W 124°03'4 8.1
2018-Apr-15 15:30N 46°14' W 123°59'4 8.9
2018-Apr-15 15:01N 46°11' W 123°54'1 2.2
2018-Apr-15 14:30N 46°10' W 123°55'0 0.0
2018-Apr-15 14:00N 46°10' W 123°55'0 0.0
2018-Apr-15 13:30N 46°10' W 123°55'0 0.0
2018-Apr-15 13:01N 46°10' W 123°55'0 0.0
2018-Apr-15 12:31N 46°10' W 123°55'0 0.0
2018-Apr-15 12:01N 46°10' W 123°55'0 0.0
2018-Apr-15 11:31N 46°10' W 123°55'0 0.0
2018-Apr-15 11:00N 46°10' W 123°55'0 0.0
2018-Apr-15 10:31N 46°10' W 123°55'0 0.0
2018-Apr-15 09:12N 46°10' W 123°55'0 0.0
2018-Apr-15 09:01N 46°10' W 123°55'0 0.0
2018-Apr-15 08:30N 46°10' W 123°55'0 0.0
2018-Apr-15 08:00N 46°10' W 123°55'0 0.0
2018-Apr-15 07:31N 46°10' W 123°55'0 0.0
2018-Apr-15 07:01N 46°10' W 123°55'0 0.0
2018-Apr-15 06:31N 46°10' W 123°55'0 0.0
2018-Apr-15 06:00N 46°10' W 123°55'0 0.0
2018-Apr-15 05:31N 46°10' W 123°55'0 0.0
2018-Apr-15 05:01N 46°10' W 123°55'0 0.0
2018-Apr-15 04:30N 46°10' W 123°55'0 0.0
2018-Apr-15 04:01N 46°10' W 123°55'0 0.0
2018-Apr-15 03:30N 46°10' W 123°55'0 0.0
2018-Apr-15 03:01N 46°10' W 123°55'0 0.0
2018-Apr-15 02:30N 46°10' W 123°55'0 0.0
2018-Apr-15 02:01N 46°10' W 123°55'0 0.0
2018-Apr-15 01:30N 46°10' W 123°55'0 0.0
2018-Apr-15 01:00N 46°10' W 123°55'0 0.0
2018-Apr-15 00:30N 46°10' W 123°55'0 0.0
2018-Apr-15 00:01N 46°10' W 123°55'0 0.0
2018-Apr-14 23:31N 46°10' W 123°55'0 0.0
2018-Apr-14 23:01N 46°10' W 123°55'0 0.0
2018-Apr-14 22:30N 46°10' W 123°55'0 0.0
2018-Apr-14 22:00N 46°10' W 123°55'0 0.0
2018-Apr-14 21:30N 46°10' W 123°55'0 0.0
2018-Apr-14 21:01N 46°10' W 123°55'0 0.0
2018-Apr-14 20:30N 46°10' W 123°55'0 0.0
2018-Apr-14 20:00N 46°10' W 123°55'0 0.0
2018-Apr-14 19:30N 46°10' W 123°55'0 0.0
2018-Apr-14 19:01N 46°10' W 123°55'0 0.0
2018-Apr-14 18:30N 46°10' W 123°55'0 0.0
2018-Apr-14 18:01N 46°10' W 123°55'0 0.0
2018-Apr-14 17:30N 46°10' W 123°55'0 0.0
2018-Apr-14 17:00N 46°10' W 123°55'0 0.0
2018-Apr-14 16:31N 46°10' W 123°55'0 0.0
2018-Apr-14 16:00N 46°10' W 123°55'0 0.0
2018-Apr-14 15:30N 46°10' W 123°55'0 0.0
2018-Apr-14 15:01N 46°10' W 123°55'0 0.0
2018-Apr-14 14:31N 46°10' W 123°55'0 0.0
2018-Apr-14 14:00N 46°10' W 123°55'0 0.0
2018-Apr-14 13:30N 46°10' W 123°55'0 0.0
2018-Apr-14 12:59N 46°10' W 123°55'0 0.0
2018-Apr-14 12:31N 46°10' W 123°55'0 0.0
2018-Apr-14 12:00N 46°10' W 123°55'0 0.0
2018-Apr-14 11:30N 46°10' W 123°55'0 0.0
2018-Apr-14 11:01N 46°10' W 123°55'0 0.0
2018-Apr-14 10:05N 46°10' W 123°55'0 0.0
2018-Apr-14 10:00N 46°10' W 123°55'0 0.0
2018-Apr-14 09:31N 46°10' W 123°55'0 0.0
2018-Apr-14 08:55N 46°10' W 123°55'0 0.0
2018-Apr-14 08:30N 46°10' W 123°55'0 0.0
2018-Apr-14 08:00N 46°10' W 123°55'0 0.0
2018-Apr-14 07:30N 46°10' W 123°55'0 0.0
2018-Apr-14 07:01N 46°10' W 123°55'0 0.0
2018-Apr-14 06:30N 46°10' W 123°55'0 0.0
2018-Apr-14 06:00N 46°10' W 123°55'0 0.0
2018-Apr-14 05:30N 46°10' W 123°55'0 0.0
2018-Apr-14 04:56N 46°10' W 123°55'0 0.0
2018-Apr-14 04:24N 46°10' W 123°55'0 0.0
2018-Apr-14 04:01N 46°10' W 123°55'0 0.0
2018-Apr-14 03:31N 46°10' W 123°55'0 0.0
2018-Apr-14 02:56N 46°10' W 123°55'0 0.0
2018-Apr-14 02:30N 46°10' W 123°55'0 0.0
2018-Apr-14 02:01N 46°10' W 123°55'0 0.0
2018-Apr-14 01:31N 46°10' W 123°55'0 0.0
2018-Apr-14 00:56N 46°10' W 123°55'0 0.0
2018-Apr-14 00:31N 46°10' W 123°55'0 0.0
2018-Apr-14 00:01N 46°10' W 123°55'0 0.0
2018-Apr-13 23:28N 46°10' W 123°55'0 0.0
2018-Apr-13 22:57N 46°10' W 123°55'0 0.0
2018-Apr-13 22:31N 46°10' W 123°55'0 0.0
2018-Apr-13 22:01N 46°10' W 123°55'0 0.0
2018-Apr-13 21:30N 46°10' W 123°55'0 0.0
2018-Apr-13 21:01N 46°10' W 123°55'0 0.0
2018-Apr-13 20:31N 46°10' W 123°55'0 0.0
2018-Apr-13 20:01N 46°10' W 123°55'0 0.0
2018-Apr-13 19:30N 46°10' W 123°55'0 0.0
2018-Apr-13 19:00N 46°10' W 123°55'0 0.0
2018-Apr-13 18:16N 46°10' W 123°55'0 0.0
2018-Apr-13 18:01N 46°10' W 123°55'0 0.0
2018-Apr-13 17:30N 46°10' W 123°55'0 0.0
2018-Apr-13 17:01N 46°10' W 123°55'0 0.0
2018-Apr-13 16:31N 46°10' W 123°55'0 0.0
2018-Apr-13 16:01N 46°10' W 123°55'0 0.0
2018-Apr-13 15:30N 46°10' W 123°55'0 0.0
2018-Apr-13 15:00N 46°10' W 123°55'0 0.0
2018-Apr-13 14:31N 46°10' W 123°55'0 0.0
2018-Apr-13 14:00N 46°10' W 123°55'0 0.0
2018-Apr-13 13:31N 46°10' W 123°55'0 0.0
2018-Apr-13 13:01N 46°10' W 123°55'0 0.0
2018-Apr-13 12:30N 46°10' W 123°55'0 0.0
2018-Apr-13 12:01N 46°10' W 123°55'0 0.0
2018-Apr-13 11:31N 46°10' W 123°55'0 0.0
2018-Apr-13 11:00N 46°10' W 123°55'0 0.0
2018-Apr-13 10:30N 46°10' W 123°55'0 0.0
2018-Apr-13 10:00N 46°10' W 123°55'0 0.0
2018-Apr-13 09:29N 46°10' W 123°55'0 0.0
2018-Apr-13 09:00N 46°10' W 123°55'0 0.0
2018-Apr-13 08:31N 46°10' W 123°55'0 0.0
2018-Apr-13 08:00N 46°10' W 123°55'0 0.0
2018-Apr-13 07:30N 46°10' W 123°55'0 0.0
2018-Apr-13 07:01N 46°10' W 123°55'0 0.0
2018-Apr-13 06:31N 46°10' W 123°55'0 0.0
2018-Apr-13 06:01N 46°10' W 123°55'0 0.0
2018-Apr-13 05:30N 46°10' W 123°55'0 0.0
2018-Apr-13 05:01N 46°10' W 123°55'0 0.0
2018-Apr-13 04:30N 46°10' W 123°55'0 0.0
2018-Apr-13 03:49N 46°10' W 123°55'0 0.0
2018-Apr-13 03:21N 46°10' W 123°55'0 0.0
2018-Apr-13 03:01N 46°10' W 123°55'0 0.0
2018-Apr-13 02:30N 46°10' W 123°55'0 0.0
2018-Apr-13 01:58N 46°10' W 123°55'0 0.0
2018-Apr-13 01:27N 46°10' W 123°55'0 0.0
2018-Apr-13 01:00N 46°10' W 123°55'0 0.0
2018-Apr-13 00:30N 46°10' W 123°55'0 0.0
2018-Apr-12 23:47N 46°10' W 123°55'0 0.0
2018-Apr-12 23:31N 46°10' W 123°55'0 0.0
2018-Apr-12 23:00N 46°10' W 123°55'0 0.0
2018-Apr-12 22:31N 46°10' W 123°55'0 0.0
2018-Apr-12 22:00N 46°10' W 123°55'0 0.0
2018-Apr-12 21:31N 46°10' W 123°55'0 0.0
2018-Apr-12 21:01N 46°10' W 123°55'0 0.0
2018-Apr-12 20:31N 46°10' W 123°55'0 0.0
2018-Apr-12 20:01N 46°10' W 123°55'0 0.0
2018-Apr-12 19:30N 46°10' W 123°55'0 0.0
2018-Apr-12 19:00N 46°10' W 123°55'0 0.0
2018-Apr-12 18:31N 46°10' W 123°55'0 0.0
2018-Apr-12 18:00N 46°10' W 123°55'0 0.0
2018-Apr-12 17:30N 46°10' W 123°55'0 0.0
2018-Apr-12 17:00N 46°10' W 123°55'0 0.0
2018-Apr-12 16:30N 46°10' W 123°55'0 0.0
2018-Apr-12 16:00N 46°10' W 123°55'0 0.0
2018-Apr-12 15:30N 46°10' W 123°55'0 0.0
2018-Apr-12 15:01N 46°10' W 123°55'0 0.0
2018-Apr-12 14:30N 46°10' W 123°55'0 0.0
2018-Apr-12 14:01N 46°10' W 123°55'0 0.0
2018-Apr-12 13:30N 46°10' W 123°55'0 0.0
2018-Apr-12 13:00N 46°10' W 123°55'0 0.0
2018-Apr-12 12:31N 46°10' W 123°55'0 0.0
2018-Apr-12 12:01N 46°10' W 123°55'0 0.0
2018-Apr-12 11:31N 46°10' W 123°55'0 0.0
2018-Apr-12 11:00N 46°10' W 123°55'0 0.0
2018-Apr-12 10:30N 46°10' W 123°55'0 0.0
2018-Apr-12 10:00N 46°10' W 123°55'0 0.0
2018-Apr-12 09:31N 46°10' W 123°55'0 0.0
2018-Apr-12 09:01N 46°10' W 123°55'0 0.0
2018-Apr-12 08:30N 46°10' W 123°55'0 0.0
2018-Apr-12 08:00N 46°10' W 123°55'0 0.0
2018-Apr-12 07:31N 46°10' W 123°55'0 0.0
2018-Apr-12 07:00N 46°10' W 123°55'0 0.0
2018-Apr-12 06:30N 46°10' W 123°55'0 0.0
2018-Apr-12 06:00N 46°10' W 123°55'0 0.0
2018-Apr-12 05:31N 46°10' W 123°55'0 0.0
2018-Apr-12 05:00N 46°10' W 123°55'0 0.0
2018-Apr-12 04:31N 46°10' W 123°55'0 0.0
2018-Apr-12 04:00N 46°10' W 123°55'0 0.0
2018-Apr-12 03:31N 46°10' W 123°55'0 0.0
2018-Apr-12 03:00N 46°10' W 123°55'0 0.0
2018-Apr-12 02:31N 46°10' W 123°55'0 0.0
2018-Apr-12 02:00N 46°10' W 123°55'0 0.0
2018-Apr-12 01:30N 46°10' W 123°55'0 0.0
2018-Apr-12 00:52N 46°10' W 123°55'0 0.0
2018-Apr-12 00:31N 46°10' W 123°55'0 0.0
2018-Apr-12 00:01N 46°10' W 123°55'0 0.0
2018-Apr-11 23:30N 46°10' W 123°55'0 0.0
2018-Apr-11 23:00N 46°10' W 123°55'0 0.0
2018-Apr-11 22:30N 46°10' W 123°55'0 0.0
2018-Apr-11 22:01N 46°10' W 123°55'0 0.0
2018-Apr-11 21:30N 46°10' W 123°55'0 0.0
2018-Apr-11 21:00N 46°10' W 123°55'0 0.0
2018-Apr-11 20:30N 46°10' W 123°55'0 0.0
2018-Apr-11 20:01N 46°10' W 123°55'0 0.0
2018-Apr-11 19:31N 46°10' W 123°55'0 0.0
2018-Apr-11 19:00N 46°10' W 123°55'0 0.0
2018-Apr-11 18:30N 46°10' W 123°55'0 0.0
2018-Apr-11 18:00N 46°10' W 123°55'0 0.0
2018-Apr-11 17:30N 46°10' W 123°55'0 0.0
2018-Apr-11 17:01N 46°10' W 123°55'0 0.0
2018-Apr-11 16:31N 46°10' W 123°55'0 0.0
2018-Apr-11 16:00N 46°10' W 123°55'0 0.0
2018-Apr-11 15:30N 46°10' W 123°55'0 0.0
2018-Apr-11 15:01N 46°10' W 123°55'0 0.0
2018-Apr-11 14:31N 46°10' W 123°55'0 0.0
2018-Apr-11 14:01N 46°10' W 123°55'0 0.0
2018-Apr-11 13:31N 46°10' W 123°55'0 0.0
2018-Apr-11 13:01N 46°10' W 123°55'0 0.0
2018-Apr-11 12:31N 46°10' W 123°55'0 0.0
2018-Apr-11 12:01N 46°10' W 123°55'0 0.0
2018-Apr-11 11:31N 46°10' W 123°55'0 0.0
2018-Apr-11 11:00N 46°10' W 123°55'0 0.0
2018-Apr-11 10:30N 46°10' W 123°55'0 0.0
2018-Apr-11 10:01N 46°10' W 123°55'0 0.0
2018-Apr-11 09:30N 46°10' W 123°55'0 0.0
2018-Apr-11 09:01N 46°10' W 123°55'0 0.0
2018-Apr-11 08:31N 46°10' W 123°55'0 0.0
2018-Apr-11 08:01N 46°10' W 123°55'0 0.0
2018-Apr-11 07:30N 46°10' W 123°55'0 0.0
2018-Apr-11 07:01N 46°10' W 123°55'0 0.0
2018-Apr-11 06:31N 46°10' W 123°55'0 0.0
2018-Apr-11 06:01N 46°10' W 123°55'0 0.0
2018-Apr-11 05:31N 46°10' W 123°55'0 0.0
2018-Apr-11 05:01N 46°10' W 123°55'0 0.0
2018-Apr-11 04:31N 46°10' W 123°55'0 0.0
2018-Apr-11 04:00N 46°10' W 123°55'0 0.0
2018-Apr-11 03:30N 46°10' W 123°55'0 0.0
2018-Apr-11 03:01N 46°10' W 123°55'0 0.0
2018-Apr-11 02:31N 46°10' W 123°55'0 0.0
2018-Apr-11 02:01N 46°10' W 123°55'0 0.0
2018-Apr-11 01:26N 46°10' W 123°55'0 0.0
2018-Apr-11 00:47N 46°10' W 123°55'0 0.0
2018-Apr-11 00:31N 46°10' W 123°55'0 0.0
2018-Apr-11 00:01N 46°10' W 123°55'0 0.0
2018-Apr-10 23:31N 46°10' W 123°55'0 0.0
2018-Apr-10 23:01N 46°10' W 123°55'0 0.0
2018-Apr-10 22:31N 46°10' W 123°55'0 0.0
2018-Apr-10 22:01N 46°10' W 123°55'0 0.0
2018-Apr-10 21:30N 46°10' W 123°55'0 0.0
2018-Apr-10 21:01N 46°10' W 123°55'0 0.0
2018-Apr-10 20:30N 46°10' W 123°55'0 0.0
2018-Apr-10 20:00N 46°10' W 123°55'0 0.0
2018-Apr-10 19:31N 46°10' W 123°55'0 0.0
2018-Apr-10 18:56N 46°10' W 123°55'0 0.0
2018-Apr-10 18:31N 46°10' W 123°55'0 0.0
2018-Apr-10 18:01N 46°10' W 123°55'0 0.0
2018-Apr-10 17:30N 46°10' W 123°55'0 0.0
2018-Apr-10 17:01N 46°10' W 123°55'0 0.0
2018-Apr-10 16:30N 46°10' W 123°55'0 0.0
2018-Apr-10 16:00N 46°10' W 123°55'0 0.0
2018-Apr-10 15:31N 46°10' W 123°55'0 0.0
2018-Apr-10 15:01N 46°10' W 123°55'0 0.0
2018-Apr-10 14:31N 46°10' W 123°55'0 0.0
2018-Apr-10 14:01N 46°10' W 123°55'0 0.0
2018-Apr-10 13:30N 46°10' W 123°55'0 0.0
2018-Apr-10 13:00N 46°10' W 123°55'0 0.0
2018-Apr-10 12:30N 46°10' W 123°55'  

Dump ship's entire track history